M I D A S
Marine Information and Data Acquisition System
Tripno 681 of the Zeeleeuw from 2004-04-01 06:13:06 to 2004-04-01 13:39:56
Back to CruiseResearch ActivitiesStationsMapUnderway DataData graphs

EquipmentUnitsComment
TimeDGPSUTC
LatitudeDGPSDM.mWGS84
LongitudeDGPSDM.mWGS84
HeadingGyrodeg 
SOGDGPSknotsSpeed over ground
COGDGPSdegCourse over ground
DepthEcho soundermeters200 kHz
Missing or incorrect values are displayed as -999
Navigation data collected by the RV Zeeleeuw from 2004-04-01 06:13:06 to 2004-04-01 13:39:56
                                                                                    Next 1000 lines
Time Latitude Longitude Heading SOG COG Depth
2004-04-01 06:13:13 51°13.595 2°56.098 126.4   124 7.2
2004-04-01 06:13:18 51°13.595 2°56.098 125.8   101 7.1
2004-04-01 06:13:24 51°13.595 2°56.098 124.8 0.1 152 7.1
2004-04-01 06:13:28 51°13.595 2°56.098 123.1 0.1 182 7.1
2004-04-01 06:13:34 51°13.595 2°56.098 121.6 0.1 197 7.1
2004-04-01 06:13:38 51°13.595 2°56.098 120.2 0.1 187 7.2
2004-04-01 06:13:44 51°13.595 2°56.098 118.7 0.1 182 7.1
2004-04-01 06:13:48 51°13.595 2°56.098 117.2 0.1 213 7.2
2004-04-01 06:13:54 51°13.595 2°56.097 116 0.1 276 7.2
2004-04-01 06:13:58 51°13.595 2°56.096 115.3 0.4 291 7.3
2004-04-01 06:14:04 51°13.596 2°56.094 114.9 0.8 293 7.3
2004-04-01 06:14:08 51°13.597 2°56.091 114.7 1.5 295 7.5
2004-04-01 06:14:13 51°13.598 2°56.087 114.7 1.8 293 7.5
2004-04-01 06:14:18 51°13.599 2°56.083 114.7 2.1 294 -999
2004-04-01 06:14:24 51°13.601 2°56.076 114.6 2.6 293 -999
2004-04-01 06:14:29 51°13.603 2°56.071 114.3 2.8 294 -999
2004-04-01 06:14:34 51°13.604 2°56.065 113.9 2.9 292 -999
2004-04-01 06:14:38 51°13.605 2°56.06 113.9 3.1 292 -999
2004-04-01 06:14:44 51°13.607 2°56.052 113.9 3.3 291 -999
2004-04-01 06:14:49 51°13.609 2°56.045 113.9 3.4 292 -999
2004-04-01 06:14:54 51°13.611 2°56.037 114 3.5 291 -999
2004-04-01 06:14:58 51°13.612 2°56.031 114.5 3.6 292 -999
2004-04-01 06:15:04 51°13.614 2°56.022 115.1 3.7 291 -999
2004-04-01 06:15:09 51°13.617 2°56.015 115.6 3.8 292 -999
2004-04-01 06:15:14 51°13.619 2°56.007 116.2 3.8 292 -999
2004-04-01 06:15:18 51°13.62 2°56 117 3.9 293 -999
2004-04-01 06:15:24 51°13.623 2°55.99 118 4.1 293 -999
2004-04-01 06:15:29 51°13.626 2°55.982 118.9 4.2 295 -999
2004-04-01 06:15:34 51°13.628 2°55.973 119.9 4.3 295 -999
2004-04-01 06:15:40 51°13.632 2°55.962 121.2 4.5 296 -999
2004-04-01 06:15:44 51°13.634 2°55.955 122 4.5 298 -999
2004-04-01 06:15:49 51°13.637 2°55.946 122.7 4.5 298 -999
2004-04-01 06:15:54 51°13.64 2°55.937 123.3 4.6 299 -999
2004-04-01 06:15:58 51°13.643 2°55.93 123.5 4.7 300 -999
2004-04-01 06:16:04 51°13.647 2°55.919 123.5 4.8 300 -999
2004-04-01 06:16:09 51°13.65 2°55.91 123 4.9 299 -999
2004-04-01 06:16:14 51°13.653 2°55.9 122 4.9 299 -999
2004-04-01 06:16:18 51°13.656 2°55.892 120.6 5 297 -999
2004-04-01 06:16:24 51°13.66 2°55.88 118.8 5 296 -999
2004-04-01 06:16:29 51°13.662 2°55.87 116.5 5.1 293 -999
2004-04-01 06:16:34 51°13.665 2°55.859 113.9 5.1 291 -999
2004-04-01 06:16:40 51°13.667 2°55.846 111 5.2 287 -999
2004-04-01 06:16:44 51°13.669 2°55.837 108.1 5.2 283 -999
2004-04-01 06:16:49 51°13.67 2°55.826 105.3 5.2 282 -999
2004-04-01 06:16:54 51°13.671 2°55.814 103.2 5.3 280 -999
2004-04-01 06:16:58 51°13.672 2°55.805 101.5 5.3 279 -999
2004-04-01 06:17:04 51°13.674 2°55.791 100 5.2 277 -999
2004-04-01 06:17:09 51°13.674 2°55.78 98.4 5 277 -999
2004-04-01 06:17:14 51°13.675 2°55.77 97.2 4.8 277 -999
2004-04-01 06:17:18 51°13.676 2°55.763 96.4 4.2 276 -999
2004-04-01 06:17:24 51°13.676 2°55.754 94.9 3.4 276 -999
2004-04-01 06:17:28 51°13.677 2°55.751 92.8 2 283 11.1
2004-04-01 06:17:33 51°13.677 2°55.749 90 1.1 293 12.1
2004-04-01 06:17:38 51°13.678 2°55.749 85.9 0.6 323 12.3
2004-04-01 06:17:44 51°13.68 2°55.75 81.2 0.8 26 12.6
2004-04-01 06:17:48 51°13.681 2°55.752 76.8 1.3 42 12.8
2004-04-01 06:17:54 51°13.683 2°55.755 70.4 1.7 45 12.9
2004-04-01 06:17:58 51°13.685 2°55.758 63.5 2 42 13.3
2004-04-01 06:18:04 51°13.688 2°55.762 56.9 2.3 41 13.7
2004-04-01 06:18:08 51°13.691 2°55.765 50.5 2.6 37 13.8
2004-04-01 06:18:14 51°13.695 2°55.769 43.8 2.7 31 13.7
2004-04-01 06:18:18 51°13.697 2°55.77 37.5 2.6 26 13.9
2004-04-01 06:18:24 51°13.7 2°55.772 35.1 2.1 26 13.9
2004-04-01 06:18:28 51°13.701 2°55.772 31.5 0.9 14 13.8
2004-04-01 06:18:33 51°13.701 2°55.772 28.9 0.3 13 13.7
2004-04-01 06:18:38 51°13.7 2°55.771 26.8 0.3 243 13.8
2004-04-01 06:18:43 51°13.699 2°55.77 25.4 0.9 209 14
2004-04-01 06:18:48 51°13.697 2°55.769 24.3 1.6 207 14
2004-04-01 06:18:54 51°13.694 2°55.766 23.6 2 205 -999
2004-04-01 06:18:58 51°13.691 2°55.765 22.9 2.4 203 -999
2004-04-01 06:19:04 51°13.687 2°55.762 22.1 2.3 204 -999
2004-04-01 06:19:09 51°13.685 2°55.761 21.9 2 203 -999
2004-04-01 06:19:14 51°13.684 2°55.76 21.2 1.3 209 -999
2004-04-01 06:19:19 51°13.684 2°55.759 19.1 0.3 334 -999
2004-04-01 06:19:24 51°13.687 2°55.759 13.3 1.6 355 -999
2004-04-01 06:19:29 51°13.69 2°55.758 4.4 1.9 356 -999
2004-04-01 06:19:34 51°13.694 2°55.757 358.2 2.8 349 -999
2004-04-01 06:19:38 51°13.698 2°55.756 353.5 3.5 347 4.7
2004-04-01 06:19:44 51°13.705 2°55.752 350.1 4 343 4.8
2004-04-01 06:19:48 51°13.71 2°55.75 345.5 4.6 339 14.1
2004-04-01 06:19:54 51°13.717 2°55.744 341.8 4.6 337 12.8
2004-04-01 06:19:58 51°13.721 2°55.741 338.1 4.5 333 11.6
2004-04-01 06:20:04 51°13.728 2°55.735 336.5 4.4 332 10.8
2004-04-01 06:20:08 51°13.732 2°55.731 335.7 4.6 331 10.3
2004-04-01 06:20:13 51°13.738 2°55.725 335.2 5 330 10
2004-04-01 06:20:18 51°13.744 2°55.719 335.2 5.3 331 9.9
2004-04-01 06:20:24 51°13.753 2°55.711 335.3 5.6 330 9.8
2004-04-01 06:20:28 51°13.759 2°55.706 335.3 6.2 330 9.7
2004-04-01 06:20:34 51°13.768 2°55.697 335.1 6.5 330 9.7
2004-04-01 06:20:38 51°13.774 2°55.691 335 6.7 330 9.7
2004-04-01 06:20:44 51°13.785 2°55.681 335.1 7 331 9.5
2004-04-01 06:20:48 51°13.792 2°55.675 335.5 7.3 331 9.4
2004-04-01 06:20:53 51°13.801 2°55.667 335.4 7.5 330 9.5
2004-04-01 06:20:58 51°13.81 2°55.658 334.4 7.6 329 10.1
2004-04-01 06:21:04 51°13.822 2°55.647 333.9 7.8 329 10.2
2004-04-01 06:21:09 51°13.831 2°55.638 333.8 8 330 10.2
2004-04-01 06:21:14 51°13.841 2°55.63 334.1 8.1 331 10.2
2004-04-01 06:21:18 51°13.849 2°55.623 335.8 8.2 333 10
2004-04-01 06:21:24 51°13.861 2°55.613 336.7 8.3 333 9.8
2004-04-01 06:21:29 51°13.871 2°55.604 336.3 8.3 331 9.8
2004-04-01 06:21:34 51°13.881 2°55.596 336 8.2 332 9.8
2004-04-01 06:21:38 51°13.889 2°55.589 336.5 8.1 332 9.8
2004-04-01 06:21:44 51°13.901 2°55.58 337.3 8 333 9.8
2004-04-01 06:21:49 51°13.911 2°55.572 338 7.9 333 9.8
2004-04-01 06:21:54 51°13.921 2°55.564 338.7 7.9 334 9.8
2004-04-01 06:21:58 51°13.929 2°55.557 338.9 7.8 333 9.7
2004-04-01 06:22:04 51°13.94 2°55.548 338.9 7.8 333 10
2004-04-01 06:22:08 51°13.948 2°55.542 338.9 7.8 334 10
2004-04-01 06:22:14 51°13.96 2°55.533 338.9 7.9 334 10.3
2004-04-01 06:22:18 51°13.968 2°55.527 339.3 7.9 334 10.4
2004-04-01 06:22:24 51°13.98 2°55.518 339.7 7.9 335 10.5
2004-04-01 06:22:29 51°13.99 2°55.511 340.2 7.9 336 10.5
2004-04-01 06:22:33 51°13.998 2°55.506 340.8 7.9 336 10.4
2004-04-01 06:22:38 51°14.008 2°55.499 341.4 7.9 336 10.3
2004-04-01 06:22:44 51°14.02 2°55.49 341.8 8 337 10.5
2004-04-01 06:22:48 51°14.028 2°55.484 342.5 8.1 337 10.5
2004-04-01 06:22:52 51°14.037 2°55.479 342.5 8.2 337 11.2
2004-04-01 06:22:58 51°14.049 2°55.47 342.1 8.3 337 11.2
2004-04-01 06:23:04 51°14.062 2°55.461 342 8.4 337 11.2
2004-04-01 06:23:08 51°14.071 2°55.455 342 8.6 337 11.2
2004-04-01 06:23:13 51°14.082 2°55.448 342 8.8 337 11.3
2004-04-01 06:23:18 51°14.094 2°55.439 342 9 336 11.4
2004-04-01 06:23:24 51°14.108 2°55.429 341.9 9.3 336 11.5
2004-04-01 06:23:29 51°14.12 2°55.42 341.8 9.7 336 11.4
2004-04-01 06:23:33 51°14.13 2°55.413 341.7 9.9 336 11.4
2004-04-01 06:23:38 51°14.143 2°55.404 341.5 9.9 336 11.4
2004-04-01 06:23:44 51°14.159 2°55.392 341.4 10.2 335 11.4
2004-04-01 06:23:48 51°14.169 2°55.383 340.1 10.5 331 11.3
2004-04-01 06:23:53 51°14.182 2°55.371 336.9 10.6 329 11.3
2004-04-01 06:23:58 51°14.194 2°55.358 334.1 10.7 328 11.3
2004-04-01 06:24:04 51°14.209 2°55.342 331.9 10.8 325 11.3
2004-04-01 06:24:09 51°14.221 2°55.327 330.2 11 323 11.2
2004-04-01 06:24:14 51°14.233 2°55.311 328.4 11.2 322 11.2
2004-04-01 06:24:18 51°14.243 2°55.298 326.7 11.2 321 11.2
2004-04-01 06:24:24 51°14.257 2°55.278 324.8 11.4 318 11.3
2004-04-01 06:24:29 51°14.268 2°55.26 323.1 11.5 316 11.2
2004-04-01 06:24:34 51°14.279 2°55.242 321.2 11.6 315 11.2
2004-04-01 06:24:38 51°14.288 2°55.227 319.9 11.6 314 11.2
2004-04-01 06:24:42 51°14.297 2°55.212 319.1 11.6 314 11.2
2004-04-01 06:24:49 51°14.313 2°55.185 318.7 11.8 313 11.1
2004-04-01 06:24:54 51°14.324 2°55.165 318.3 11.8 312 10.8
2004-04-01 06:24:58 51°14.332 2°55.149 317 11.8 311 10.7
2004-04-01 06:25:04 51°14.344 2°55.124 315 11.9 309 10.9
2004-04-01 06:25:08 51°14.351 2°55.106 312.6 12.1 305 10.5
2004-04-01 06:25:14 51°14.362 2°55.079 309.9 12.2 303 10.6
2004-04-01 06:25:18 51°14.37 2°55.06 308.4 12.3 302 11
2004-04-01 06:25:24 51°14.38 2°55.031 307.2 12.7 301 11.1
2004-04-01 06:25:28 51°14.388 2°55.011 306.6 12.8 301 11
2004-04-01 06:25:34 51°14.399 2°54.981 306.5 13.2 301 10.8
2004-04-01 06:25:38 51°14.407 2°54.961 307 13.3 304 10.8
2004-04-01 06:25:44 51°14.42 2°54.932 309.2 13.4 305 10.9
2004-04-01 06:25:49 51°14.432 2°54.909 311.2 13.5 307 10.8
2004-04-01 06:25:54 51°14.444 2°54.885 312.8 13.6 308 10.7
2004-04-01 06:25:58 51°14.454 2°54.867 315 13.6 310 10.7
2004-04-01 06:26:04 51°14.469 2°54.84 317 13.7 311 10.7
2004-04-01 06:26:08 51°14.479 2°54.822 318.3 13.7 313 10.7
2004-04-01 06:26:13 51°14.492 2°54.8 319.4 13.8 314 10.6
2004-04-01 06:26:18 51°14.506 2°54.778 320 13.8 314 10.6
2004-04-01 06:26:24 51°14.522 2°54.752 320.4 13.8 314 10.4
2004-04-01 06:26:28 51°14.532 2°54.735 320.7 13.8 314 10.5
2004-04-01 06:26:34 51°14.548 2°54.708 320.7 13.8 314 10.4
2004-04-01 06:26:38 51°14.559 2°54.691 320.4 13.8 314 10.2
2004-04-01 06:26:44 51°14.575 2°54.665 320.4 13.8 314 10.2
2004-04-01 06:26:48 51°14.586 2°54.647 320.4 13.8 314 10.1
2004-04-01 06:26:54 51°14.602 2°54.621 320.5 13.8 314 10
2004-04-01 06:26:58 51°14.613 2°54.603 320.5 13.8 314 10
2004-04-01 06:27:04 51°14.629 2°54.577 320.4 13.8 314 10
2004-04-01 06:27:08 51°14.639 2°54.559 320.3 13.8 314 9.9
2004-04-01 06:27:14 51°14.655 2°54.533 320.3 13.9 314 10.1
2004-04-01 06:27:18 51°14.666 2°54.515 320.3 13.9 314 10.1
2004-04-01 06:27:24 51°14.682 2°54.488 320 13.9 314 10.1
2004-04-01 06:27:28 51°14.693 2°54.471 319.9 13.9 313 10.2
2004-04-01 06:27:34 51°14.709 2°54.444 319.8 13.9 314 10.2
2004-04-01 06:27:38 51°14.719 2°54.426 319.8 13.9 314 10.3
2004-04-01 06:27:44 51°14.735 2°54.399 320 13.9 314 10.2
2004-04-01 06:27:48 51°14.746 2°54.381 320 13.9 313 10.1
2004-04-01 06:27:54 51°14.762 2°54.354 320 13.9 314 10.2
2004-04-01 06:27:58 51°14.772 2°54.337 320 13.9 314 10.1
2004-04-01 06:28:02 51°14.783 2°54.319 320 13.9 314 10.1
2004-04-01 06:28:08 51°14.799 2°54.293 320 13.9 314 10.1
2004-04-01 06:28:14 51°14.814 2°54.266 320.3 13.9 314 10.1
2004-04-01 06:28:18 51°14.825 2°54.248 320.5 13.8 314 10
2004-04-01 06:28:24 51°14.841 2°54.222 320.6 13.8 314 9.7
2004-04-01 06:28:28 51°14.852 2°54.204 320.7 13.8 314 9.6
2004-04-01 06:28:33 51°14.865 2°54.183 320.6 13.7 314 9.6
2004-04-01 06:28:38 51°14.878 2°54.161 320.3 13.7 313 9.7
2004-04-01 06:28:44 51°14.893 2°54.134 320 13.6 313 9.2
2004-04-01 06:28:48 51°14.904 2°54.117 320 13.6 313 9.1
2004-04-01 06:28:54 51°14.919 2°54.091 320 13.6 314 9.1
2004-04-01 06:28:58 51°14.93 2°54.073 320 13.6 314 9.3
2004-04-01 06:29:04 51°14.945 2°54.047 320.3 13.6 314 9.2
2004-04-01 06:29:08 51°14.956 2°54.03 320.7 13.6 314 9.2
2004-04-01 06:29:13 51°14.969 2°54.008 320.7 13.7 314 9.3
2004-04-01 06:29:18 51°14.982 2°53.986 320.4 13.7 314 9.5
2004-04-01 06:29:24 51°14.998 2°53.959 320 13.7 313 9.5
2004-04-01 06:29:29 51°15.01 2°53.937 319.7 13.8 312 9.6
2004-04-01 06:29:33 51°15.021 2°53.919 319.3 13.8 312 9.6
2004-04-01 06:29:38 51°15.033 2°53.896 319 13.8 312 9.8
2004-04-01 06:29:44 51°15.049 2°53.869 318.7 13.8 312 9.8
2004-04-01 06:29:48 51°15.059 2°53.851 318.8 13.8 313 10
2004-04-01 06:29:53 51°15.073 2°53.83 322 13.8 317 10
2004-04-01 06:29:58 51°15.088 2°53.811 325.4 13.8 320 10.1
2004-04-01 06:30:04 51°15.107 2°53.79 328.2 13.8 322 9.9
2004-04-01 06:30:08 51°15.12 2°53.776 331.4 13.7 325 9.9
2004-04-01 06:30:13 51°15.135 2°53.76 333.8 13.6 328 10.1
2004-04-01 06:30:18 51°15.152 2°53.745 335.3 13.6 329 9.9
2004-04-01 06:30:24 51°15.171 2°53.726 336.2 13.6 329 9.9
2004-04-01 06:30:28 51°15.184 2°53.714 336.5 13.6 329 9.9
2004-04-01 06:30:33 51°15.201 2°53.699 336.6 13.7 329 9.9
2004-04-01 06:30:38 51°15.217 2°53.683 336.5 13.7 329 10
2004-04-01 06:30:44 51°15.236 2°53.664 336.4 13.7 328 10
2004-04-01 06:30:48 51°15.249 2°53.651 335.9 13.7 329 10
2004-04-01 06:30:54 51°15.269 2°53.632 335.8 13.7 328 10.1
2004-04-01 06:30:58 51°15.282 2°53.62 335.9 13.7 329 10.2
2004-04-01 06:31:04 51°15.301 2°53.601 336.2 13.7 329 10.2
2004-04-01 06:31:09 51°15.318 2°53.586 336.6 13.8 330 10.2
2004-04-01 06:31:14 51°15.334 2°53.571 337 13.8 330 10.3
2004-04-01 06:31:18 51°15.348 2°53.559 337.5 13.8 330 10.4
2004-04-01 06:31:24 51°15.367 2°53.541 337.7 13.7 331 10.4
2004-04-01 06:31:28 51°15.381 2°53.531 339.1 13.7 334 10.5
2004-04-01 06:31:34 51°15.402 2°53.515 341.3 13.7 335 10.6
2004-04-01 06:31:38 51°15.416 2°53.506 343.5 13.7 338 10.6
2004-04-01 06:31:44 51°15.437 2°53.493 345.4 13.7 339 10.7
2004-04-01 06:31:48 51°15.452 2°53.485 346.6 13.7 339 10.8
2004-04-01 06:31:53 51°15.469 2°53.475 347.1 13.7 340 10.9
2004-04-01 06:31:58 51°15.488 2°53.465 347.6 13.7 340 10.9
2004-04-01 06:32:04 51°15.509 2°53.453 347.7 13.7 341 11
2004-04-01 06:32:08 51°15.523 2°53.444 347.9 13.7 340 11.1
2004-04-01 06:32:14 51°15.545 2°53.431 347.6 13.7 340 11.2
2004-04-01 06:32:18 51°15.559 2°53.423 347 13.7 339 11.4
2004-04-01 06:32:24 51°15.58 2°53.41 346.8 13.7 339 11.3
2004-04-01 06:32:28 51°15.594 2°53.401 346.6 13.7 339 11.4
2004-04-01 06:32:33 51°15.612 2°53.39 346.6 13.7 339 11.5
2004-04-01 06:32:38 51°15.63 2°53.379 346.7 13.7 339 11.4
2004-04-01 06:32:44 51°15.651 2°53.366 346.8 13.7 339 11.5
2004-04-01 06:32:48 51°15.665 2°53.358 346.8 13.7 339 11.5
2004-04-01 06:32:54 51°15.687 2°53.344 346.8 13.7 339 11.6
2004-04-01 06:32:58 51°15.701 2°53.335 346.6 13.7 338 11.6
2004-04-01 06:33:04 51°15.722 2°53.322 346.2 13.6 338 11.6
2004-04-01 06:33:08 51°15.736 2°53.312 345.9 13.7 338 11.7
2004-04-01 06:33:14 51°15.757 2°53.298 345.6 13.7 338 11.8
2004-04-01 06:33:18 51°15.771 2°53.289 345.5 13.7 338 11.7
2004-04-01 06:33:24 51°15.792 2°53.276 345.7 13.7 338 11.8
2004-04-01 06:33:28 51°15.806 2°53.267 346.1 13.7 339 11.9
2004-04-01 06:33:34 51°15.827 2°53.253 346.3 13.7 338 11.9
2004-04-01 06:33:38 51°15.841 2°53.245 346.6 13.7 339 11.9
2004-04-01 06:33:43 51°15.859 2°53.234 346.7 13.7 338 11.9
2004-04-01 06:33:48 51°15.876 2°53.223 346.7 13.7 339 12
2004-04-01 06:33:54 51°15.898 2°53.209 346.6 13.7 338 12
2004-04-01 06:33:58 51°15.912 2°53.2 346.2 13.7 338 12.1
2004-04-01 06:34:04 51°15.933 2°53.186 345.9 13.7 338 12.1
2004-04-01 06:34:08 51°15.947 2°53.177 346.1 13.7 338 12.1
2004-04-01 06:34:14 51°15.968 2°53.164 346.2 13.7 338 12.2
2004-04-01 06:34:18 51°15.982 2°53.154 346.3 13.7 338 12.2
2004-04-01 06:34:24 51°16.004 2°53.141 346.3 13.7 338 12.3
2004-04-01 06:34:29 51°16.021 2°53.129 346.2 13.7 338 12.3
2004-04-01 06:34:34 51°16.039 2°53.118 346 13.7 338 12.4
2004-04-01 06:34:38 51°16.053 2°53.109 345.6 13.7 338 12.4
2004-04-01 06:34:44 51°16.074 2°53.095 345.7 13.7 338 12.4
2004-04-01 06:34:48 51°16.089 2°53.087 346.9 13.7 340 12.4
2004-04-01 06:34:54 51°16.11 2°53.076 348 13.7 341 12.5
2004-04-01 06:34:58 51°16.125 2°53.068 349.4 13.6 342 12.4
2004-04-01 06:35:04 51°16.146 2°53.057 350.1 13.7 342 12.6
2004-04-01 06:35:08 51°16.161 2°53.05 350.4 13.6 342 12.6
2004-04-01 06:35:14 51°16.183 2°53.039 350.5 13.7 343 12.6
2004-04-01 06:35:18 51°16.197 2°53.032 350.5 13.7 343 12.7
2004-04-01 06:35:24 51°16.219 2°53.021 350.2 13.7 342 12.6
2004-04-01 06:35:28 51°16.233 2°53.014 350.2 13.7 343 12.7
2004-04-01 06:35:34 51°16.255 2°53.004 350.5 13.7 344 12.7
2004-04-01 06:35:38 51°16.27 2°52.998 351 13.6 344 12.6
2004-04-01 06:35:44 51°16.291 2°52.988 351.2 13.6 344 12.6
2004-04-01 06:35:49 51°16.31 2°52.979 350.6 13.6 344 12.6
2004-04-01 06:35:54 51°16.328 2°52.97 350.2 13.6 343 12.6
2004-04-01 06:35:58 51°16.342 2°52.963 349.8 13.6 343 12.6
2004-04-01 06:36:02 51°16.356 2°52.956 349.5 13.5 343 12.6
2004-04-01 06:36:08 51°16.378 2°52.946 349.4 13.5 343 12.7
2004-04-01 06:36:13 51°16.396 2°52.937 349.5 13.5 343 12.5
2004-04-01 06:36:18 51°16.414 2°52.929 349.7 13.6 344 12.6
2004-04-01 06:36:24 51°16.436 2°52.919 349.7 13.6 344 12.5
2004-04-01 06:36:28 51°16.45 2°52.912 349.6 13.6 343 12.5
2004-04-01 06:36:34 51°16.471 2°52.901 349.3 13.6 343 12.5
2004-04-01 06:36:38 51°16.486 2°52.894 349.1 13.6 343 12.4
2004-04-01 06:36:44 51°16.508 2°52.884 349.3 13.6 343 12.4
2004-04-01 06:36:48 51°16.522 2°52.877 349.7 13.6 343 12.3
2004-04-01 06:36:53 51°16.54 2°52.869 349.8 13.5 344 12.1
2004-04-01 06:36:58 51°16.558 2°52.86 349.8 13.5 343 12.1
2004-04-01 06:37:04 51°16.58 2°52.849 349.5 13.6 343 11.9
2004-04-01 06:37:08 51°16.594 2°52.842 349.2 13.6 343 11.9
2004-04-01 06:37:14 51°16.615 2°52.831 349.1 13.6 343 11.9
2004-04-01 06:37:18 51°16.629 2°52.824 349.2 13.5 343 11.9
2004-04-01 06:37:24 51°16.651 2°52.814 349.4 13.5 343 11.6
2004-04-01 06:37:28 51°16.665 2°52.806 349.5 13.5 343 11.6
2004-04-01 06:37:34 51°16.686 2°52.796 349.5 13.4 343 11.3
2004-04-01 06:37:38 51°16.701 2°52.789 349.5 13.4 343 11.1
2004-04-01 06:37:44 51°16.722 2°52.778 349.5 13.4 343 11
2004-04-01 06:37:48 51°16.736 2°52.771 349.4 13.4 342 10.8
2004-04-01 06:37:54 51°16.758 2°52.76 349 13.4 342 10.5
2004-04-01 06:37:58 51°16.772 2°52.754 349 13.3 343 10.2
2004-04-01 06:38:04 51°16.793 2°52.743 349.4 13.2 343 9.9
2004-04-01 06:38:08 51°16.807 2°52.736 349.8 13.2 343 10
2004-04-01 06:38:14 51°16.828 2°52.726 349.4 13.2 342 9.9
2004-04-01 06:38:18 51°16.842 2°52.718 349 13.2 342 9.6
2004-04-01 06:38:24 51°16.862 2°52.707 348.6 13.2 341 9.7
2004-04-01 06:38:28 51°16.876 2°52.699 348.2 13.2 341 9.8
2004-04-01 06:38:33 51°16.894 2°52.691 348.5 13.2 342 9.7
2004-04-01 06:38:38 51°16.911 2°52.682 349.1 13.2 343 9.8
2004-04-01 06:38:44 51°16.933 2°52.672 349.4 13.3 343 9.9
2004-04-01 06:38:48 51°16.947 2°52.665 349.6 13.3 344 10.1
2004-04-01 06:38:53 51°16.965 2°52.657 350.1 13.4 343 10.4
2004-04-01 06:38:58 51°16.983 2°52.649 350.8 13.4 345 10.3
2004-04-01 06:39:04 51°17.005 2°52.64 351.5 13.4 345 10.4
2004-04-01 06:39:08 51°17.019 2°52.635 352.7 13.5 347 10.6
2004-04-01 06:39:14 51°17.041 2°52.627 353.4 13.5 347 10.5
2004-04-01 06:39:18 51°17.056 2°52.621 353.7 13.5 347 10.3
2004-04-01 06:39:24 51°17.077 2°52.614 354.2 13.4 348 10
2004-04-01 06:39:28 51°17.092 2°52.609 354.5 13.3 348 10
2004-04-01 06:39:33 51°17.11 2°52.603 354.5 13.3 348 9.9
2004-04-01 06:39:38 51°17.128 2°52.596 354.7 13.3 347 9.9
2004-04-01 06:39:44 51°17.15 2°52.588 354.3 13.3 347 10.1
2004-04-01 06:39:49 51°17.167 2°52.581 353.7 13.3 346 10
2004-04-01 06:39:54 51°17.186 2°52.573 353.2 13.4 346 9.8
2004-04-01 06:39:58 51°17.2 2°52.567 353 13.4 345 10.1
2004-04-01 06:40:04 51°17.221 2°52.559 352.9 13.4 346 10
2004-04-01 06:40:08 51°17.236 2°52.553 352.8 13.4 346 10.3
2004-04-01 06:40:13 51°17.254 2°52.546 353.4 13.4 346 10.3
2004-04-01 06:40:18 51°17.272 2°52.539 353.6 13.4 347 10.3
2004-04-01 06:40:24 51°17.294 2°52.531 353.9 13.4 347 10.1
2004-04-01 06:40:28 51°17.308 2°52.525 354.1 13.4 346 10.3
2004-04-01 06:40:33 51°17.326 2°52.518 353.5 13.4 346 10.4
2004-04-01 06:40:38 51°17.344 2°52.511 353.6 13.4 346 10.5
2004-04-01 06:40:44 51°17.366 2°52.503 353.5 13.4 346 10.6
2004-04-01 06:40:48 51°17.381 2°52.497 353.5 13.4 346 10.7
2004-04-01 06:40:54 51°17.402 2°52.489 353.6 13.4 347 10.5
2004-04-01 06:40:58 51°17.417 2°52.483 353.8 13.5 346 10.6
2004-04-01 06:41:04 51°17.439 2°52.475 353.5 13.5 346 10.7
2004-04-01 06:41:08 51°17.453 2°52.469 353.4 13.5 347 10.7
2004-04-01 06:41:14 51°17.475 2°52.463 354.4 13.4 349 10.8
2004-04-01 06:41:18 51°17.49 2°52.458 356 13.4 350 10.6
2004-04-01 06:41:24 51°17.512 2°52.453 357.8 13.4 351 10.7
2004-04-01 06:41:28 51°17.526 2°52.45 358.8 13.4 352 10.6
2004-04-01 06:41:34 51°17.549 2°52.446 359.7 13.4 353 10.6
2004-04-01 06:41:38 51°17.563 2°52.443 359.9 13.4 353 10.9
2004-04-01 06:41:44 51°17.585 2°52.438 0.1 13.4 353 10.6
2004-04-01 06:41:48 51°17.6 2°52.435   13.4 353 10.7
2004-04-01 06:41:53 51°17.619 2°52.432 359.9 13.4 353 10.8
2004-04-01 06:41:58 51°17.637 2°52.43 1.4 13.4 356 10.6
2004-04-01 06:42:04 51°17.659 2°52.428 2.8 13.4 356 10.8
2004-04-01 06:42:08 51°17.674 2°52.427 4.5 13.4 359 10.7
2004-04-01 06:42:14 51°17.696 2°52.427 5.5 13.4 358 10.4
2004-04-01 06:42:18 51°17.711 2°52.426 6.4 13.4   10.8
2004-04-01 06:42:24 51°17.733 2°52.426 6.5 13.3   10.7
2004-04-01 06:42:29 51°17.752 2°52.426 6.8 13.3 359 10.6
2004-04-01 06:42:34 51°17.77 2°52.425 6.8 13.3   10.6
2004-04-01 06:42:38 51°17.785 2°52.425 6.5 13.4   10.8
2004-04-01 06:42:44 51°17.808 2°52.427 7.4 13.3 3 10.7
2004-04-01 06:42:48 51°17.822 2°52.428 9.1 13.4 3 10.7
2004-04-01 06:42:53 51°17.841 2°52.43 10.5 13.3 5 10.8
2004-04-01 06:42:58 51°17.859 2°52.433 11.1 13.3 4 10.8
2004-04-01 06:43:04 51°17.881 2°52.436 11.8 13.3 5 10.8
2004-04-01 06:43:08 51°17.896 2°52.439 12 13.4 7 10.9
2004-04-01 06:43:13 51°17.914 2°52.442 13.6 13.4 7 10.9
2004-04-01 06:43:19 51°17.936 2°52.448 14.3 13.4 8 10.9
2004-04-01 06:43:24 51°17.955 2°52.452 15.1 13.4 9 11
2004-04-01 06:43:28 51°17.969 2°52.456 15.7 13.3 9 10.9
2004-04-01 06:43:34 51°17.991 2°52.461 15.9 13.3 9 11
2004-04-01 06:43:38 51°18.006 2°52.465 16 13.3 9 11
2004-04-01 06:43:44 51°18.028 2°52.471 16 13.4 9 11
2004-04-01 06:43:48 51°18.042 2°52.474 16 13.4 9 11.1
2004-04-01 06:43:54 51°18.065 2°52.48 15.8 13.4 9 11.1
2004-04-01 06:43:58 51°18.079 2°52.484 15.4 13.4 9 11.1
2004-04-01 06:44:04 51°18.101 2°52.49 15.2 13.4 9 11.1
2004-04-01 06:44:08 51°18.115 2°52.496 17.4 13.4 14 11.2
2004-04-01 06:44:14 51°18.137 2°52.506 20.1 13.4 15 11.2
2004-04-01 06:44:18 51°18.151 2°52.514 22.5 13.3 18 11.2
2004-04-01 06:44:24 51°18.172 2°52.526 24.4 13.3 19 11.2
2004-04-01 06:44:29 51°18.189 2°52.536 26 13.4 20 11.3
2004-04-01 06:44:34 51°18.206 2°52.547 26.6 13.4 21 11.3
2004-04-01 06:44:38 51°18.22 2°52.556 27.5 13.4 22 11.3
2004-04-01 06:44:44 51°18.241 2°52.569 27.6 13.4 21 11.3
2004-04-01 06:44:48 51°18.255 2°52.578 27.7 13.4 22 11.4
2004-04-01 06:44:54 51°18.275 2°52.591 27.8 13.4 22 11.4
2004-04-01 06:44:58 51°18.289 2°52.601 27.7 13.4 23 11.4
2004-04-01 06:45:04 51°18.308 2°52.617 30.8 13.3 29 11.5
2004-04-01 06:45:08 51°18.321 2°52.629 33.9 13.3 29 11.4
2004-04-01 06:45:13 51°18.336 2°52.646 36.9 13.3 33 11.5
2004-04-01 06:45:18 51°18.351 2°52.663 39.4 13.3 37 11.5
2004-04-01 06:45:24 51°18.368 2°52.686 41.3 13.3 37 11.5
2004-04-01 06:45:28 51°18.379 2°52.702 45.3 13.3 44 11.6
2004-04-01 06:45:34 51°18.394 2°52.728 48.7 13.2 46 11.6
2004-04-01 06:45:38 51°18.403 2°52.746 51.7 13.2 48 11.6
2004-04-01 06:45:44 51°18.417 2°52.773 54.1 13.2 49 11.6
2004-04-01 06:45:48 51°18.427 2°52.791 55.3 13.2 51 11.6
2004-04-01 06:45:53 51°18.438 2°52.814 56.1 13.2 52 11.7
2004-04-01 06:45:58 51°18.449 2°52.837 56.6 13.3 52 11.7
2004-04-01 06:46:04 51°18.462 2°52.865 57.3 13.3 52 11.7
2004-04-01 06:46:08 51°18.471 2°52.884 57.8 13.3 53 11.7
2004-04-01 06:46:13 51°18.482 2°52.907 57.8 13.3 52 11.7
2004-04-01 06:46:18 51°18.493 2°52.931 57.7 13.4 53 11.7
2004-04-01 06:46:24 51°18.506 2°52.96 57.8 13.4 54 11.8
2004-04-01 06:46:28 51°18.514 2°52.979 59.2 13.3 56 11.8
2004-04-01 06:46:34 51°18.526 2°53.009 60.7 13.3 56 11.8
2004-04-01 06:46:38 51°18.534 2°53.029 62 13.3 58 11.7
2004-04-01 06:46:44 51°18.546 2°53.059 62.5 13.4 59 11.8
2004-04-01 06:46:48 51°18.554 2°53.079 63.1 13.4 58 11.8
2004-04-01 06:46:53 51°18.564 2°53.104 63 13.4 58 11.8
2004-04-01 06:46:58 51°18.574 2°53.129 62.8 13.4 58 11.8
2004-04-01 06:47:04 51°18.586 2°53.159 62.6 13.4 58 11.8
2004-04-01 06:47:09 51°18.596 2°53.184 62.5 13.4 58 11.8
2004-04-01 06:47:14 51°18.606 2°53.21 62.2 13.5 57 11.8
2004-04-01 06:47:18 51°18.614 2°53.229 61.6 13.5 57 11.8
2004-04-01 06:47:24 51°18.626 2°53.259 61.6 13.4 57 11.8
2004-04-01 06:47:28 51°18.634 2°53.279 61.8 13.4 57 11.9
2004-04-01 06:47:33 51°18.644 2°53.304 61.8 13.4 57 11.9
2004-04-01 06:47:38 51°18.654 2°53.33 61.9 13.4 57 12
2004-04-01 06:47:44 51°18.666 2°53.36 61.7 13.5 57 11.9
2004-04-01 06:47:49 51°18.675 2°53.386 62.9 13.5 61 11.9
2004-04-01 06:47:54 51°18.684 2°53.412 65.2 13.5 62 11.9
2004-04-01 06:47:58 51°18.69 2°53.434 67.5 13.4 64 11.9
2004-04-01 06:48:04 51°18.7 2°53.466 69.4 13.5 65 11.9
2004-04-01 06:48:08 51°18.706 2°53.488 70.6 13.5 67 11.9
2004-04-01 06:48:13 51°18.713 2°53.516 71.7 13.5 67 11.9
2004-04-01 06:48:18 51°18.72 2°53.543 71.8 13.5 67 11.9
2004-04-01 06:48:24 51°18.729 2°53.576 71.8 13.5 67 11.9
2004-04-01 06:48:29 51°18.736 2°53.604 71.8 13.5 67 11.9
2004-04-01 06:48:34 51°18.744 2°53.631 71.5 13.6 67 11.9
2004-04-01 06:48:38 51°18.75 2°53.653 71.1 13.5 66 11.9
2004-04-01 06:48:44 51°18.758 2°53.686 71.5 13.5 67 11.9
2004-04-01 06:48:48 51°18.764 2°53.708 71.7 13.5 66 12
2004-04-01 06:48:54 51°18.773 2°53.741 71.4 13.6 67 11.9
2004-04-01 06:48:58 51°18.78 2°53.763 71 13.5 66 11.9
2004-04-01 06:49:04 51°18.789 2°53.796 71 13.5 67 11.9
2004-04-01 06:49:08 51°18.795 2°53.818 71 13.6 66 11.9
2004-04-01 06:49:14 51°18.804 2°53.851 70.7 13.6 66 11.9
2004-04-01 06:49:18 51°18.81 2°53.873 70.5 13.5 66 12
2004-04-01 06:49:24 51°18.819 2°53.906 70.9 13.5 66 11.9
2004-04-01 06:49:28 51°18.825 2°53.927 70.7 13.5 66 12
2004-04-01 06:49:34 51°18.834 2°53.96 70.4 13.5 66 12
2004-04-01 06:49:38 51°18.84 2°53.982 70.8 13.6 66 12
2004-04-01 06:49:44 51°18.85 2°54.015 71 13.7 66 11.9
2004-04-01 06:49:48 51°18.856 2°54.037 71 13.6 66 11.9
2004-04-01 06:49:54 51°18.865 2°54.07 71 13.6 66 11.9
2004-04-01 06:49:58 51°18.871 2°54.092 70.8 13.6 66 12
2004-04-01 06:50:04 51°18.881 2°54.125 70.4 13.6 65 11.9
2004-04-01 06:50:08 51°18.887 2°54.147 70 13.6 65 12
2004-04-01 06:50:14 51°18.897 2°54.18 70.1 13.6 66 11.8
2004-04-01 06:50:18 51°18.903 2°54.202 70.4 13.6 66 11.9
2004-04-01 06:50:24 51°18.912 2°54.235 70.5 13.6 66 11.9
2004-04-01 06:50:29 51°18.92 2°54.262 70.4 13.6 66 11.9
2004-04-01 06:50:34 51°18.928 2°54.289 70.2 13.6 65 12
2004-04-01 06:50:38 51°18.934 2°54.311 70.3 13.5 66 11.9
2004-04-01 06:50:44 51°18.943 2°54.344 70.4 13.5 66 12
2004-04-01 06:50:49 51°18.951 2°54.372 70.4 13.6 66 12
2004-04-01 06:50:54 51°18.959 2°54.399 70.5 13.6 66 11.9
2004-04-01 06:50:58 51°18.965 2°54.421 70.5 13.6 66 12
2004-04-01 06:51:04 51°18.975 2°54.453 70.4 13.5 65 12
2004-04-01 06:51:08 51°18.981 2°54.475 70.3 13.6 65 12
2004-04-01 06:51:14 51°18.991 2°54.508 70.1 13.6 65 12
2004-04-01 06:51:18 51°18.997 2°54.53 69.9 13.6 65 12
2004-04-01 06:51:24 51°19.007 2°54.562 69.9 13.6 65 12.1
2004-04-01 06:51:29 51°19.015 2°54.589 69.9 13.6 65 11.9
2004-04-01 06:51:34 51°19.023 2°54.617 70.1 13.6 65 11.9
2004-04-01 06:51:38 51°19.029 2°54.638 69.8 13.5 65 12
2004-04-01 06:51:44 51°19.039 2°54.671 69.6 13.5 65 12
2004-04-01 06:51:48 51°19.045 2°54.693 69.6 13.5 65 11.9
2004-04-01 06:51:54 51°19.055 2°54.725 69.5 13.5 64 12
2004-04-01 06:51:58 51°19.061 2°54.746 69.5 13.5 65 12
2004-04-01 06:52:04 51°19.071 2°54.779 69.2 13.5 64 12
2004-04-01 06:52:08 51°19.077 2°54.801 69.4 13.5 65 11.9
2004-04-01 06:52:14 51°19.087 2°54.833 69.7 13.5 65 12
2004-04-01 06:52:18 51°19.093 2°54.855 69.6 13.5 65 12
2004-04-01 06:52:24 51°19.103 2°54.887 69.5 13.5 65 12
2004-04-01 06:52:28 51°19.11 2°54.909 69.2 13.5 65 12
2004-04-01 06:52:34 51°19.119 2°54.941 69.7 13.5 65 12.1
2004-04-01 06:52:38 51°19.126 2°54.963 69.7 13.5 64 12
2004-04-01 06:52:44 51°19.135 2°54.995 69.5 13.6 65 12
2004-04-01 06:52:48 51°19.142 2°55.017 68.9 13.5 64 12
2004-04-01 06:52:54 51°19.151 2°55.05 69.5 13.5 65 12
2004-04-01 06:52:58 51°19.158 2°55.071 69.3 13.5 65 12
2004-04-01 06:53:04 51°19.167 2°55.104 69.3 13.5 65 12
2004-04-01 06:53:09 51°19.175 2°55.131 69.3 13.5 65 12
2004-04-01 06:53:14 51°19.183 2°55.158 69.5 13.6 66 12
2004-04-01 06:53:18 51°19.189 2°55.18 69.9 13.5 65 12
2004-04-01 06:53:24 51°19.199 2°55.213 70.1 13.5 66 12
2004-04-01 06:53:28 51°19.205 2°55.234 69.9 13.5 65 12
2004-04-01 06:53:34 51°19.215 2°55.267 69.6 13.5 64 11.9
2004-04-01 06:53:38 51°19.222 2°55.288 69.2 13.5 64 12.1
2004-04-01 06:53:44 51°19.232 2°55.321 69.1 13.5 64 12
2004-04-01 06:53:48 51°19.238 2°55.342 69.3 13.5 65 11.9
2004-04-01 06:53:53 51°19.246 2°55.37 69.5 13.5 65 12
2004-04-01 06:53:58 51°19.254 2°55.397 69.4 13.5 64 12.1
2004-04-01 06:54:04 51°19.264 2°55.429 69.5 13.5 65 11.9
2004-04-01 06:54:08 51°19.27 2°55.451 69.2 13.6 64 12
2004-04-01 06:54:14 51°19.28 2°55.483 68.9 13.6 64 12
2004-04-01 06:54:18 51°19.286 2°55.505 69 13.5 65 12
2004-04-01 06:54:24 51°19.296 2°55.538 69.3 13.6 65 12
2004-04-01 06:54:28 51°19.302 2°55.56 69.4 13.6 65 11.9
2004-04-01 06:54:34 51°19.311 2°55.592 69.6 13.6 65 11.9
2004-04-01 06:54:38 51°19.318 2°55.614 69.8 13.6 65 11.9
2004-04-01 06:54:44 51°19.328 2°55.647 69.6 13.6 65 11.8
2004-04-01 06:54:48 51°19.334 2°55.669 69.5 13.6 65 11.8
2004-04-01 06:54:54 51°19.344 2°55.701 69.4 13.6 64 11.9
2004-04-01 06:54:58 51°19.35 2°55.723 69 13.6 64 11.8
2004-04-01 06:55:04 51°19.36 2°55.755 69.3 13.6 65 11.9
2004-04-01 06:55:08 51°19.366 2°55.778 69.5 13.7 65 11.8
2004-04-01 06:55:14 51°19.376 2°55.81 69.6 13.6 64 11.8
2004-04-01 06:55:18 51°19.382 2°55.832 69.6 13.6 65 11.9
2004-04-01 06:55:24 51°19.392 2°55.865 69.3 13.6 64 11.8
2004-04-01 06:55:28 51°19.399 2°55.887 69.3 13.7 65 11.9
2004-04-01 06:55:34 51°19.408 2°55.92 69.2 13.7 65 11.8
2004-04-01 06:55:38 51°19.415 2°55.941 69.4 13.6 65 11.8
2004-04-01 06:55:44 51°19.424 2°55.974 70.1 13.5 66 11.8
2004-04-01 06:55:48 51°19.43 2°55.996 70.1 13.6 65 11.8
2004-04-01 06:55:54 51°19.44 2°56.029 69.8 13.6 65 11.7
2004-04-01 06:55:58 51°19.446 2°56.05 69.4 13.6 64 11.8
2004-04-01 06:56:04 51°19.456 2°56.083 69.3 13.6 64 11.7
2004-04-01 06:56:09 51°19.465 2°56.11 68.9 13.7 64 11.8
2004-04-01 06:56:14 51°19.473 2°56.137 68.7 13.6 63 11.7
2004-04-01 06:56:18 51°19.48 2°56.159 68.8 13.6 65 11.7
2004-04-01 06:56:24 51°19.489 2°56.191 69.2 13.6 65 11.7
2004-04-01 06:56:28 51°19.496 2°56.213 69.6 13.6 65 11.7
2004-04-01 06:56:34 51°19.506 2°56.246 69.4 13.6 64 11.8
2004-04-01 06:56:38 51°19.512 2°56.268 69.2 13.6 64 11.7
2004-04-01 06:56:44 51°19.522 2°56.3 69.1 13.6 65 11.7
2004-04-01 06:56:48 51°19.528 2°56.322 69.2 13.6 64 11.8
2004-04-01 06:56:54 51°19.538 2°56.355 69.2 13.6 65 11.7
2004-04-01 06:56:58 51°19.545 2°56.376 69.2 13.6 65 11.7
2004-04-01 06:57:04 51°19.554 2°56.409 69.3 13.6 65 11.8
2004-04-01 06:57:08 51°19.56 2°56.431 69.6 13.6 65 11.7
2004-04-01 06:57:14 51°19.57 2°56.463 69.7 13.6 65 11.7
2004-04-01 06:57:18 51°19.577 2°56.485 69.4 13.6 64 11.8
2004-04-01 06:57:24 51°19.587 2°56.518 69.1 13.7 64 11.8
2004-04-01 06:57:28 51°19.593 2°56.539 68.8 13.7 64 11.8
2004-04-01 06:57:34 51°19.603 2°56.572 68.6 13.6 65 11.7
2004-04-01 06:57:38 51°19.61 2°56.594 69.1 13.6 65 11.7
2004-04-01 06:57:44 51°19.619 2°56.626 69.4 13.6 65 11.7
2004-04-01 06:57:48 51°19.626 2°56.648 69.3 13.6 65 11.7
2004-04-01 06:57:54 51°19.635 2°56.681 69.4 13.6 65 11.8
2004-04-01 06:57:58 51°19.642 2°56.703 69.4 13.6 65 11.7
2004-04-01 06:58:04 51°19.652 2°56.735 69.2 13.6 65 11.7
2004-04-01 06:58:08 51°19.658 2°56.757 69.1 13.6 65 11.7
2004-04-01 06:58:14 51°19.668 2°56.79 69.1 13.6 65 11.7
2004-04-01 06:58:18 51°19.674 2°56.811 69.1 13.6 65 11.7
2004-04-01 06:58:24 51°19.684 2°56.844 69 13.6 65 11.7
2004-04-01 06:58:28 51°19.69 2°56.866 68.9 13.6 65 11.6
2004-04-01 06:58:33 51°19.698 2°56.893 69.1 13.6 65 11.7
2004-04-01 06:58:38 51°19.706 2°56.92 69.4 13.6 65 11.6
2004-04-01 06:58:44 51°19.716 2°56.953 69.5 13.6 65 11.7
2004-04-01 06:58:48 51°19.722 2°56.975 69.5 13.6 65 11.6
2004-04-01 06:58:54 51°19.732 2°57.008 69.5 13.6 65 11.6
2004-04-01 06:58:58 51°19.738 2°57.03 69.1 13.7 65 11.6
2004-04-01 06:59:04 51°19.748 2°57.062 69.1 13.7 65 11.6
2004-04-01 06:59:08 51°19.754 2°57.084 69 13.6 64 11.5
2004-04-01 06:59:14 51°19.764 2°57.117 69.2 13.6 64 11.6
2004-04-01 06:59:18 51°19.77 2°57.139 69.4 13.6 65 11.6
2004-04-01 06:59:23 51°19.778 2°57.166 69.6 13.7 65 11.5
2004-04-01 06:59:28 51°19.786 2°57.194 69.7 13.6 65 11.6
2004-04-01 06:59:34 51°19.796 2°57.227 69.8 13.6 65 11.5
2004-04-01 06:59:38 51°19.802 2°57.249 69.8 13.6 65 11.6
2004-04-01 06:59:44 51°19.812 2°57.281 69.6 13.6 65 11.5
2004-04-01 06:59:48 51°19.818 2°57.303 69.5 13.6 64 11.6
2004-04-01 06:59:53 51°19.826 2°57.33 69 13.6 64 11.6
2004-04-01 06:59:58 51°19.834 2°57.357 69.2 13.6 65 11.6
2004-04-01 07:00:04 51°19.844 2°57.39 69.4 13.6 65 11.5
2004-04-01 07:00:09 51°19.851 2°57.417 69.4 13.6 65 11.6
2004-04-01 07:00:14 51°19.859 2°57.445 69.3 13.6 66 11.5
2004-04-01 07:00:18 51°19.866 2°57.467 69.5 13.6 66 11.5
2004-04-01 07:00:24 51°19.875 2°57.5 69.5 13.7 65 11.6
2004-04-01 07:00:28 51°19.882 2°57.521 69.3 13.6 65 11.5
2004-04-01 07:00:34 51°19.891 2°57.554 69 13.5 65 11.5
2004-04-01 07:00:38 51°19.898 2°57.576 68.8 13.6 66 11.5
2004-04-01 07:00:42 51°19.904 2°57.598 69.3 13.6 66 11.5
2004-04-01 07:00:49 51°19.914 2°57.637 70.5 13.6 67 11.4
2004-04-01 07:00:54 51°19.921 2°57.665 71.3 13.6 67 11.4
2004-04-01 07:00:58 51°19.927 2°57.687 72 13.6 69 11.5
2004-04-01 07:01:04 51°19.935 2°57.721 72.6 13.6 68 11.4
2004-04-01 07:01:08 51°19.941 2°57.744 72.6 13.7 68 11.5
2004-04-01 07:01:14 51°19.949 2°57.777 71.9 13.6 68 11.5
2004-04-01 07:01:18 51°19.954 2°57.799 71.8 13.6 68 11.4
2004-04-01 07:01:24 51°19.963 2°57.833 72.3 13.6 68 11.4
2004-04-01 07:01:28 51°19.968 2°57.855 72.5 13.6 68 11.4
2004-04-01 07:01:33 51°19.975 2°57.884 72.8 13.6 69 11.3
2004-04-01 07:01:38 51°19.982 2°57.912 72.8 13.6 69 11.4
2004-04-01 07:01:44 51°19.99 2°57.945 72.8 13.5 68 11.3
2004-04-01 07:01:48 51°19.995 2°57.967 72.5 13.6 68 11.3
2004-04-01 07:01:53 51°20.003 2°57.995 72.1 13.6 68 11.4
2004-04-01 07:01:58 51°20.009 2°58.023 72.4 13.6 69 11.4
2004-04-01 07:02:04 51°20.018 2°58.057 72.8 13.6 68 11.4
2004-04-01 07:02:08 51°20.023 2°58.079 72.6 13.6 69 11.4
2004-04-01 07:02:14 51°20.031 2°58.113 72.3 13.6 68 11.4
2004-04-01 07:02:18 51°20.037 2°58.135 72 13.6 69 11.3
2004-04-01 07:02:23 51°20.044 2°58.163 72.3 13.6 68 11.3
2004-04-01 07:02:29 51°20.052 2°58.196 72.5 13.6 69 11.3
2004-04-01 07:02:34 51°20.059 2°58.224 72.5 13.6 68 11.2
2004-04-01 07:02:38 51°20.064 2°58.247 72.5 13.6 69 11.2
2004-04-01 07:02:44 51°20.073 2°58.28 72.5 13.6 68 11.2
2004-04-01 07:02:48 51°20.079 2°58.302 72.3 13.5 68 11.2
2004-04-01 07:02:53 51°20.085 2°58.33 72.2 13.5 68 11.2
2004-04-01 07:02:58 51°20.092 2°58.358 72.3 13.5 68 11.2
2004-04-01 07:03:04 51°20.1 2°58.391 72.5 13.5 69 11.2
2004-04-01 07:03:08 51°20.106 2°58.414 72.8 13.5 68 11.2
2004-04-01 07:03:14 51°20.114 2°58.447 72.7 13.5 68 11.2
2004-04-01 07:03:18 51°20.12 2°58.469 72.1 13.5 68 11.2
2004-04-01 07:03:24 51°20.128 2°58.502 72 13.4 68 11.2
2004-04-01 07:03:28 51°20.134 2°58.524 72.2 13.5 68 11.2
2004-04-01 07:03:34 51°20.142 2°58.558 72.5 13.5 69 11.3
2004-04-01 07:03:38 51°20.147 2°58.58 72.8 13.5 69 11.2
2004-04-01 07:03:44 51°20.156 2°58.613 72.7 13.5 69 11.2
2004-04-01 07:03:48 51°20.161 2°58.635 72.4 13.5 68 11.1
2004-04-01 07:03:54 51°20.17 2°58.669 72.2 13.5 68 11.3
2004-04-01 07:03:58 51°20.175 2°58.691 71.9 13.5 68 11.2
2004-04-01 07:04:04 51°20.184 2°58.724 71.9 13.5 68 11.2
2004-04-01 07:04:08 51°20.19 2°58.746 72 13.5 68 11.2
2004-04-01 07:04:13 51°20.196 2°58.774 72.3 13.5 68 11.1
2004-04-01 07:04:18 51°20.203 2°58.802 72.5 13.5 69 11.2
2004-04-01 07:04:24 51°20.211 2°58.836 73 13.5 69 11.2
2004-04-01 07:04:28 51°20.216 2°58.859 74.3 13.6 70 11.1
2004-04-01 07:04:33 51°20.222 2°58.887 74.7 13.6 71 11.1
2004-04-01 07:04:38 51°20.228 2°58.915 75.4 13.5 72 11.1
2004-04-01 07:04:44 51°20.235 2°58.949 75.9 13.5 72 11.2
2004-04-01 07:04:49 51°20.241 2°58.978 76.2 13.5 72 11
2004-04-01 07:04:54 51°20.247 2°59.006 75.9 13.5 72 11.1
2004-04-01 07:04:58 51°20.252 2°59.029 75.4 13.5 71 11.1
2004-04-01 07:05:04 51°20.259 2°59.063 75.5 13.5 71 11.1
2004-04-01 07:05:08 51°20.263 2°59.086 75.5 13.6 72 11.3
2004-04-01 07:05:14 51°20.271 2°59.12 75.8 13.6 72 11.1
2004-04-01 07:05:18 51°20.275 2°59.143 76.1 13.6 72 11.1
2004-04-01 07:05:24 51°20.282 2°59.178 76.2 13.6 71 11.1
2004-04-01 07:05:28 51°20.287 2°59.201 75.8 13.6 71 11.2
2004-04-01 07:05:34 51°20.295 2°59.235 75.2 13.6 71 11.1
2004-04-01 07:05:38 51°20.3 2°59.258 74.9 13.7 71 11
2004-04-01 07:05:44 51°20.308 2°59.292 74.9 13.7 70 11.1
2004-04-01 07:05:48 51°20.313 2°59.314 75.4 13.6 71 11
2004-04-01 07:05:54 51°20.32 2°59.349 75.6 13.6 71 11.1
2004-04-01 07:05:58 51°20.325 2°59.372 76 13.6 71 11.1
2004-04-01 07:06:04 51°20.332 2°59.406 75.9 13.6 71 11.1
2004-04-01 07:06:08 51°20.337 2°59.428 75.5 13.6 71 11.1
2004-04-01 07:06:14 51°20.345 2°59.463 75.2 13.6 70 11
2004-04-01 07:06:18 51°20.35 2°59.485 74.8 13.6 70 11
2004-04-01 07:06:24 51°20.358 2°59.519 74.8 13.6 70 11
2004-04-01 07:06:29 51°20.364 2°59.548 75.2 13.6 71 11
2004-04-01 07:06:34 51°20.37 2°59.576 75.6 13.6 71 11
2004-04-01 07:06:37 51°20.374 2°59.593 75.5 13.6 71 11
2004-04-01 07:06:44 51°20.382 2°59.633 75.6 13.6 70 11
2004-04-01 07:06:48 51°20.388 2°59.656 75.7 13.6 71 10.9
2004-04-01 07:06:53 51°20.394 2°59.684 75.3 13.6 71 10.9
2004-04-01 07:06:58 51°20.4 2°59.712 74.9 13.6 70 10.9
2004-04-01 07:07:04 51°20.408 2°59.747 75.2 13.6 71 10.9
2004-04-01 07:07:08 51°20.413 2°59.77 75.8 13.6 71 10.9
2004-04-01 07:07:13 51°20.419 2°59.798 75.9 13.6 71 10.9
2004-04-01 07:07:18 51°20.425 2°59.827 75.9 13.6 71 11
2004-04-01 07:07:24 51°20.433 2°59.861 75.4 13.6 71 10.9
2004-04-01 07:07:28 51°20.438 2°59.883 75.2 13.6 70 10.9
2004-04-01 07:07:34 51°20.445 2°59.918 74.9 13.6 70 10.9
2004-04-01 07:07:38 51°20.45 2°59.94 75 13.6 70 10.9
2004-04-01 07:07:44 51°20.458 2°59.974 75.4 13.6 71 10.9
2004-04-01 07:07:48 51°20.463 2°59.997 75.9 13.6 71 10.9
2004-04-01 07:07:54 51°20.47 3°0.031 76 13.6 71 10.9
2004-04-01 07:07:58 51°20.475 3°0.054 75.9 13.6 70 11
2004-04-01 07:08:04 51°20.483 3°0.088 75.4 13.6 70 10.9
2004-04-01 07:08:09 51°20.49 3°0.116 75.3 13.6 70 11
2004-04-01 07:08:14 51°20.496 3°0.145 74.9 13.6 70 10.9
2004-04-01 07:08:18 51°20.501 3°0.167 74.9 13.7 69 10.9
2004-04-01 07:08:24 51°20.509 3°0.202 75 13.7 71 10.9
2004-04-01 07:08:28 51°20.514 3°0.224 75.3 13.7 71 10.9
2004-04-01 07:08:33 51°20.52 3°0.253 75.7 13.7 71 10.9
2004-04-01 07:08:38 51°20.527 3°0.282 75.5 13.7 70 10.9
2004-04-01 07:08:44 51°20.534 3°0.315 75.4 13.6 70 10.9
2004-04-01 07:08:48 51°20.539 3°0.338 75.3 13.6 71 10.9
2004-04-01 07:08:52 51°20.544 3°0.361 75.6 13.6 71 10.8
2004-04-01 07:08:58 51°20.552 3°0.395 75.9 13.6 71 10.9
2004-04-01 07:09:04 51°20.559 3°0.429 76 13.6 71 10.8
2004-04-01 07:09:08 51°20.564 3°0.452 75.5 13.6 70 10.8
2004-04-01 07:09:13 51°20.571 3°0.48 75 13.6 70 10.9
2004-04-01 07:09:18 51°20.577 3°0.508 74.8 13.5 70 10.9
2004-04-01 07:09:24 51°20.585 3°0.542 75 13.6 70 10.8
2004-04-01 07:09:29 51°20.591 3°0.571 75 13.6 71 10.9
2004-04-01 07:09:34 51°20.598 3°0.599 75.1 13.6 71 10.9
2004-04-01 07:09:38 51°20.602 3°0.622 75.4 13.6 71 10.8
2004-04-01 07:09:44 51°20.61 3°0.656 75.8 13.6 71 10.8
2004-04-01 07:09:48 51°20.614 3°0.679 76.2 13.6 73 10.8
2004-04-01 07:09:53 51°20.619 3°0.708 77.5 13.6 73 10.8
2004-04-01 07:09:58 51°20.624 3°0.737 78.9 13.6 75 10.8
2004-04-01 07:10:04 51°20.63 3°0.772 79.8 13.6 75 10.8
2004-04-01 07:10:08 51°20.633 3°0.795 80.6 13.6 77 10.8
2004-04-01 07:10:13 51°20.638 3°0.825 80.9 13.6 76 10.8
2004-04-01 07:10:18 51°20.642 3°0.854 81.1 13.6 77 10.8
2004-04-01 07:10:24 51°20.648 3°0.889 81 13.6 76 10.9
2004-04-01 07:10:29 51°20.652 3°0.918 80.9 13.7 76 10.8
2004-04-01 07:10:34 51°20.657 3°0.947 80.6 13.6 76 10.8
2004-04-01 07:10:38 51°20.66 3°0.971 80.5 13.6 75 10.9
2004-04-01 07:10:44 51°20.666 3°1.006 80.9 13.6 76 10.7
2004-04-01 07:10:48 51°20.669 3°1.029 80.9 13.8 76 10.8
2004-04-01 07:10:53 51°20.674 3°1.059 80.5 13.7 75 10.8
2004-04-01 07:10:58 51°20.679 3°1.088 80.5 13.6 76 10.8
2004-04-01 07:11:04 51°20.684 3°1.123 80.6 13.6 76 10.9
2004-04-01 07:11:09 51°20.689 3°1.152 80.6 13.6 76 10.8
2004-04-01 07:11:14 51°20.693 3°1.182 80.6 13.7 76 10.8
2004-04-01 07:11:18 51°20.697 3°1.205 80.4 13.7 76 10.8
2004-04-01 07:11:24 51°20.703 3°1.24 80.5 13.7 76 10.8
2004-04-01 07:11:28 51°20.706 3°1.264 80.6 13.6 76 10.8
2004-04-01 07:11:34 51°20.712 3°1.299 80.6 13.6 76 10.7
2004-04-01 07:11:38 51°20.715 3°1.323 80.5 13.7 76 10.7
2004-04-01 07:11:44 51°20.721 3°1.358 81.2 13.7 77 10.7
2004-04-01 07:11:48 51°20.725 3°1.382 80.7 13.7 75 10.7
2004-04-01 07:11:54 51°20.73 3°1.416 80.3 13.6 76 10.7
2004-04-01 07:11:58 51°20.734 3°1.44 80.5 13.6 76 10.7
2004-04-01 07:12:04 51°20.74 3°1.475 79.7 13.7 75 10.7
2004-04-01 07:12:08 51°20.744 3°1.498 79.5 13.7 74 10.7
2004-04-01 07:12:13 51°20.749 3°1.527 79.1 13.7 74 10.7
2004-04-01 07:12:18 51°20.754 3°1.556 79 13.7 74 10.7
2004-04-01 07:12:24 51°20.76 3°1.591 78.9 13.7 74 10.7
2004-04-01 07:12:28 51°20.764 3°1.615 79.1 13.7 74 10.7
2004-04-01 07:12:33 51°20.769 3°1.644 78.9 13.6 75 10.8
2004-04-01 07:12:38 51°20.774 3°1.674 79.4 13.7 75 10.8
2004-04-01 07:12:44 51°20.78 3°1.709 79.2 13.7 75 10.8
2004-04-01 07:12:48 51°20.784 3°1.733 79.4 13.7 75 10.8
2004-04-01 07:12:53 51°20.789 3°1.762 79.7 13.7 75 11
2004-04-01 07:12:58 51°20.794 3°1.791 79.8 13.7 75 11
2004-04-01 07:13:04 51°20.8 3°1.826 79.9 13.7 75 10.8
2004-04-01 07:13:08 51°20.804 3°1.85 79.2 13.7 75 11
2004-04-01 07:13:14 51°20.81 3°1.884 79.1 13.7 75 11
2004-04-01 07:13:18 51°20.814 3°1.908 79.4 13.7 75 11
2004-04-01 07:13:24 51°20.82 3°1.943 79.8 13.7 75 10.8
2004-04-01 07:13:28 51°20.824 3°1.967 79.7 13.7 75 11
2004-04-01 07:13:33 51°20.829 3°1.996 79.7 13.7 75 10.7
2004-04-01 07:13:38 51°20.834 3°2.025 79.3 13.7 74 10.7
2004-04-01 07:13:44 51°20.84 3°2.06 78.9 13.7 74 10.9
2004-04-01 07:13:48 51°20.844 3°2.083 79.1 13.7 75 10.9
2004-04-01 07:13:54 51°20.849 3°2.119 79.2 13.7 75 10.9
2004-04-01 07:13:58 51°20.853 3°2.142 79.8 13.7 76 10.9
2004-04-01 07:14:04 51°20.857 3°2.178 81.2 13.8 78 10.9
2004-04-01 07:14:08 51°20.86 3°2.202 83.7 13.7 81 10.9
2004-04-01 07:14:14 51°20.862 3°2.238 86.4 13.6 84 10.9
2004-04-01 07:14:18 51°20.864 3°2.262 88.1 13.7 84 10.9
2004-04-01 07:14:24 51°20.865 3°2.299 89.5 13.7 86 10.8
2004-04-01 07:14:28 51°20.866 3°2.323 90.7 13.7 86 10.9
2004-04-01 07:14:33 51°20.866 3°2.353 91 13.7 87 10.8
2004-04-01 07:14:38 51°20.867 3°2.384 92 13.7 88 10.8
2004-04-01 07:14:44 51°20.868 3°2.42 92 13.7 88 10.8
2004-04-01 07:14:48 51°20.869 3°2.444 91.4 13.7 86 10.7
2004-04-01 07:14:53 51°20.87 3°2.475 91.6 13.7 88 10.7
2004-04-01 07:14:58 51°20.871 3°2.505 91.1 13.7 87 10.7
2004-04-01 07:15:04 51°20.871 3°2.541 91.4 13.7 88 10.7
2004-04-01 07:15:08 51°20.872 3°2.565 91.7 13.7 88 10.7
2004-04-01 07:15:14 51°20.874 3°2.601 91.1 13.7 87 10.8
2004-04-01 07:15:18 51°20.874 3°2.625 90.9 13.6 87 10.7
2004-04-01 07:15:24 51°20.875 3°2.662 91.4 13.6 88 10.6
2004-04-01 07:15:28 51°20.876 3°2.686 90.9 13.8 87 10.5
2004-04-01 07:15:32 51°20.877 3°2.711 90.4 13.6 87 10.6
2004-04-01 07:15:38 51°20.878 3°2.747 91.1 13.6 87 10.5
2004-04-01 07:15:44 51°20.88 3°2.783 91.2 13.7 87 10.5
2004-04-01 07:15:48 51°20.88 3°2.807 90.8 13.7 87 10.6
2004-04-01 07:15:53 51°20.882 3°2.838 90.6 13.7 86 10.6
2004-04-01 07:15:58 51°20.883 3°2.868 90.7 13.6 87 10.5
2004-04-01 07:16:04 51°20.884 3°2.904 91.2 13.6 87 10.4
2004-04-01 07:16:08 51°20.885 3°2.928 91 13.7 87 10.3
2004-04-01 07:16:14 51°20.886 3°2.965 91 13.7 87 10.4
2004-04-01 07:16:18 51°20.887 3°2.989 90.7 13.7 87 10.4
2004-04-01 07:16:24 51°20.888 3°3.025 91 13.6 87 10.4
2004-04-01 07:16:29 51°20.889 3°3.055 91.3 13.6 87 10.4
2004-04-01 07:16:33 51°20.89 3°3.08 91.4 13.7 87 10.4
2004-04-01 07:16:38 51°20.891 3°3.11 90.8 13.7 86 10.3
2004-04-01 07:16:44 51°20.892 3°3.147 90.7 13.7 87 10.4
2004-04-01 07:16:49 51°20.894 3°3.177 90.7 13.7 86 10.3
2004-04-01 07:16:54 51°20.895 3°3.207 90.7 13.7 86 10.3
2004-04-01 07:16:58 51°20.896 3°3.231 90.5 13.3 86 10.3
2004-04-01 07:17:02 51°20.897 3°3.253 90.4 12.7 86 10.1
2004-04-01 07:17:08 51°20.898 3°3.285 90.7 12.1 87 10.1
2004-04-01 07:17:13 51°20.899 3°3.311 90.7 11.6 86 10.3
2004-04-01 07:17:18 51°20.9 3°3.334 91.1 11 86 10.3
2004-04-01 07:17:24 51°20.903 3°3.36 89.6 10.3 84 10.4
2004-04-01 07:17:28 51°20.906 3°3.375 82.7 9.3 73 10.4
2004-04-01 07:17:33 51°20.911 3°3.393 75.1 8.9 68 10.4
2004-04-01 07:17:38 51°20.916 3°3.41 69.7 8.6 65 10.5
2004-04-01 07:17:44 51°20.923 3°3.43 67.1 8.5 63 10.5
2004-04-01 07:17:48 51°20.927 3°3.442 65.4 8.1 60 10.5
2004-04-01 07:17:54 51°20.934 3°3.46 65.2 8 61 10.5
2004-04-01 07:17:58 51°20.938 3°3.472 65.1 7.9 61 10.6
2004-04-01 07:18:04 51°20.944 3°3.49 65.7 7.9 61 10.5
2004-04-01 07:18:08 51°20.948 3°3.501 66 7.2 60 10.6
2004-04-01 07:18:13 51°20.952 3°3.514 65.5 6.9 62 10.6
2004-04-01 07:18:18 51°20.957 3°3.527 65.4 6.6 59 10.6
2004-04-01 07:18:24 51°20.962 3°3.541 65.2 6.4 62 10.6
2004-04-01 07:18:28 51°20.965 3°3.55 64.9 6 60 10.7
2004-04-01 07:18:34 51°20.97 3°3.564 64.9 6 60 10.7
2004-04-01 07:18:38 51°20.973 3°3.572 64.9 5.6 60 10.8
2004-04-01 07:18:44 51°20.978 3°3.585 65.2 5.5 61 10.7
2004-04-01 07:18:48 51°20.98 3°3.593 65.6 5.2 61 10.8
2004-04-01 07:18:54 51°20.985 3°3.605 66 5 61 10.8
2004-04-01 07:18:58 51°20.987 3°3.612 66.8 4.9 62 10.8
2004-04-01 07:19:04 51°20.991 3°3.623 68 4.7 64 10.8
2004-04-01 07:19:08 51°20.993 3°3.631 69.1 4.6 64 10.8
2004-04-01 07:19:13 51°20.995 3°3.639 70.4 4.4 66 10.9
2004-04-01 07:19:18 51°20.998 3°3.648 72 4.3 65 10.8
2004-04-01 07:19:24 51°21 3°3.658 72.9 4.1 68 10.8
2004-04-01 07:19:28 51°21.002 3°3.664 74.4 4 67 10.8
2004-04-01 07:19:34 51°21.004 3°3.674 75.1 3.9 71 10.8
2004-04-01 07:19:38 51°21.006 3°3.68 76.2 3.7 68 10.9
2004-04-01 07:19:43 51°21.007 3°3.687 77.3 3.6 72 10.8
2004-04-01 07:19:49 51°21.009 3°3.696 78.1 3.5 70 10.9
2004-04-01 07:19:54 51°21.011 3°3.703 78.8 3.4 73 10.9
2004-04-01 07:19:58 51°21.012 3°3.709 79.6 3.3 72 10.9
2004-04-01 07:20:04 51°21.014 3°3.717 80.3 3.2 72 10.9
2004-04-01 07:20:08 51°21.014 3°3.722 80.7 3.2 71 10.9
2004-04-01 07:20:13 51°21.016 3°3.729 81.2 3.1 72 10.9
2004-04-01 07:20:18 51°21.017 3°3.735 81.6 3.1 72 10.9
2004-04-01 07:20:24 51°21.018 3°3.742 82 2.9 72 10.9
2004-04-01 07:20:28 51°21.019 3°3.747 82.4 2.8 76 10.8
2004-04-01 07:20:33 51°21.02 3°3.753 82.7 2.8 71 10.8
2004-04-01 07:20:38 51°21.021 3°3.758 82.7 2.7 74 10.8
2004-04-01 07:20:44 51°21.023 3°3.765 83.1 2.6 72 10.9
2004-04-01 07:20:48 51°21.023 3°3.769 83.3 2.5 74 10.8
2004-04-01 07:20:54 51°21.024 3°3.775 83.3 2.5 71 10.8
2004-04-01 07:20:58 51°21.025 3°3.78 83.5 2.4 76 10.9
2004-04-01 07:21:04 51°21.026 3°3.786 83.7 2.4 73 10.9
2004-04-01 07:21:08 51°21.027 3°3.79 83.9 2.4 72 10.9
2004-04-01 07:21:13 51°21.028 3°3.794 83.9 2.3 76 10.8
2004-04-01 07:21:18 51°21.029 3°3.799 84.1 2.3 72 10.8
2004-04-01 07:21:24 51°21.03 3°3.804 84.2 2.2 74 10.8
2004-04-01 07:21:28 51°21.031 3°3.808 84.3 2.2 70 10.8
2004-04-01 07:21:34 51°21.031 3°3.813 84.3 2.1 76 10.9
2004-04-01 07:21:38 51°21.032 3°3.817 84.4 2.1 71 10.9
2004-04-01 07:21:44 51°21.033 3°3.822 84.2 2 74 10.9
2004-04-01 07:21:48 51°21.034 3°3.825 84.2 2 72 10.9
2004-04-01 07:21:54 51°21.035 3°3.83 84.2 2 72 10.9
2004-04-01 07:21:58 51°21.036 3°3.833 84.1 2 69 11
2004-04-01 07:22:04 51°21.037 3°3.839 83.8 2.1 72 10.9
2004-04-01 07:22:08 51°21.038 3°3.843 83.8 2.3 73 10.9
2004-04-01 07:22:14 51°21.039 3°3.851 83.5 2.7 74 10.9
2004-04-01 07:22:18 51°21.04 3°3.856 83.2 3.1 75 10.8
2004-04-01 07:22:24 51°21.042 3°3.866 82.5 3.7 74 10.9
2004-04-01 07:22:29 51°21.043 3°3.874 81.4 3.9 74 10.8
2004-04-01 07:22:33 51°21.045 3°3.881 80.5 4.1 72 10.8
2004-04-01 07:22:38 51°21.046 3°3.891 79.4 4.3 73 10.9
2004-04-01 07:22:44 51°21.049 3°3.902 78.4 4.6 72 10.9
2004-04-01 07:22:48 51°21.05 3°3.911 77.6 4.7 72 10.9
2004-04-01 07:22:53 51°21.053 3°3.921 76.9 5 70 10.9
2004-04-01 07:22:58 51°21.055 3°3.932 75.7 5.1 69 10.8
2004-04-01 07:23:04 51°21.058 3°3.944 74.8 5 69 10.8
2004-04-01 07:23:08 51°21.06 3°3.952 73.5 4.9 68 10.9
2004-04-01 07:23:13 51°21.063 3°3.962 72.6 4.9 68 10.9
2004-04-01 07:23:18 51°21.066 3°3.972 71.8 4.8 67 10.9
2004-04-01 07:23:24 51°21.069 3°3.983 71.3 4.8 67 10.9
2004-04-01 07:23:28 51°21.071 3°3.991 70.3 4.8 67 10.9
2004-04-01 07:23:33 51°21.074 3°4 69.6 4.7 63 10.9
2004-04-01 07:23:38 51°21.077 3°4.009 68.9 4.7 63 10.9
2004-04-01 07:23:42 51°21.079 3°4.016 68 4.5 64 10.9
2004-04-01 07:23:48 51°21.083 3°4.027 67.3 4.5 61 10.9
2004-04-01 07:23:54 51°21.087 3°4.037 66.1 4.5 61 10.9
2004-04-01 07:23:58 51°21.089 3°4.044 65.3 4.5 59 11
2004-04-01 07:24:04 51°21.093 3°4.054 64.5 4.4 59 11
2004-04-01 07:24:08 51°21.095 3°4.061 64 4.4 59 11
2004-04-01 07:24:13 51°21.099 3°4.069 63.7 4.4 59 10.9
2004-04-01 07:24:18 51°21.102 3°4.077 63.5 4.3 58 10.9
2004-04-01 07:24:24 51°21.105 3°4.086 63.4 4.2 57 10.9
2004-04-01 07:24:28 51°21.108 3°4.093 63.4 4.1 60 10.9
2004-04-01 07:24:34 51°21.111 3°4.102 63.6 4.1 56 11
2004-04-01 07:24:38 51°21.114 3°4.108 63.8 4 61 11
2004-04-01 07:24:44 51°21.117 3°4.117 64.1 4 57 11
2004-04-01 07:24:48 51°21.119 3°4.123 64.4 3.9 60 11.1
2004-04-01 07:24:54 51°21.123 3°4.132 64.8 3.9 59 11
2004-04-01 07:24:58 51°21.125 3°4.138 65.3 3.8 60 11.1
2004-04-01 07:25:04 51°21.128 3°4.146 65.9 3.8 60 11
2004-04-01 07:25:08 51°21.13 3°4.152 66.4 3.8 61 11.1
2004-04-01 07:25:14 51°21.133 3°4.161 66.8 3.7 61 11
2004-04-01 07:25:18 51°21.135 3°4.166 67.1 3.7 62 11.1
2004-04-01 07:25:24 51°21.138 3°4.175 67.5 3.6 59 11
2004-04-01 07:25:28 51°21.14 3°4.18 67.9 3.6 59 10.9
2004-04-01 07:25:34 51°21.142 3°4.189 68.1 3.6 63 11
2004-04-01 07:25:38 51°21.144 3°4.194 68.2 3.5 61 11
2004-04-01 07:25:44 51°21.147 3°4.203 68.2 3.5 63 11.1
2004-04-01 07:25:48 51°21.149 3°4.208 68.3 3.5 61 11
2004-04-01 07:25:54 51°21.152 3°4.216 68.3 3.5 63 11
2004-04-01 07:25:58 51°21.154 3°4.222 68.2 3.5 61 11.1
2004-04-01 07:26:04 51°21.156 3°4.23 67.8 3.5 61 11
2004-04-01 07:26:09 51°21.159 3°4.236 67.6 3.5 60 11
2004-04-01 07:26:14 51°21.161 3°4.243 67.3 3.5 60 11
2004-04-01 07:26:18 51°21.163 3°4.249 67.1 3.4 61 11.1
2004-04-01 07:26:24 51°21.166 3°4.257 66.9 3.4 60 11.1
2004-04-01 07:26:28 51°21.168 3°4.262 66.7 3.4 61 11.2
2004-04-01 07:26:33 51°21.17 3°4.268 66.4 3.4 59 11
2004-04-01 07:26:38 51°21.172 3°4.275 66.3 3.4 62 11.1
2004-04-01 07:26:44 51°21.175 3°4.283 66.1 3.4 58 11.1
2004-04-01 07:26:48 51°21.177 3°4.288 66.1 3.4 59 11.2
2004-04-01 07:26:53 51°21.18 3°4.294 66.3 3.4 60 11.2
2004-04-01 07:26:58 51°21.182 3°4.301 66.5 3.4 63 11.2
2004-04-01 07:27:04 51°21.184 3°4.309 66.7 3.4 57 11.1
2004-04-01 07:27:09 51°21.187 3°4.315 66.9 3.4 58 11.2
2004-04-01 07:27:14 51°21.189 3°4.322 67 3.4 59 11.1
2004-04-01 07:27:18 51°21.191 3°4.327 67.4 3.4 64 11.2
2004-04-01 07:27:24 51°21.194 3°4.335 67.5 3.4 64 11.2
2004-04-01 07:27:28 51°21.195 3°4.34 68 3.4 59 11.2
2004-04-01 07:27:34 51°21.198 3°4.348 68.1 3.4 59 11.2
2004-04-01 07:27:38 51°21.2 3°4.353 68.4 3.4 60 11.2
2004-04-01 07:27:44 51°21.202 3°4.361 68.6 3.4 60 11.1
2004-04-01 07:27:49 51°21.205 3°4.367 68.9 3.4 60 11.2
2004-04-01 07:27:54 51°21.207 3°4.374 69.1 3.3 65 11.2
2004-04-01 07:27:58 51°21.208 3°4.379 69.6 3.3 61 11.2
2004-04-01 07:28:04 51°21.211 3°4.387 70 3.3 61 11.3
2004-04-01 07:28:08 51°21.212 3°4.392 70.5 3.3 64 11.3
2004-04-01 07:28:13 51°21.214 3°4.399 70.9 3.3 65 11.2
2004-04-01 07:28:18 51°21.216 3°4.405 71.2 3.3 63 11.2
2004-04-01 07:28:24 51°21.219 3°4.413 71.6 3.3 66 11.2
2004-04-01 07:28:28 51°21.22 3°4.418 71.8 3.3 66 11.3
2004-04-01 07:28:34 51°21.223 3°4.426 72 3.2 65 11.2
2004-04-01 07:28:38 51°21.224 3°4.431 72.3 3.3 67 11.2
2004-04-01 07:28:43 51°21.226 3°4.438 72.5 3.2 65 11.2
2004-04-01 07:28:48 51°21.228 3°4.445 72.8 3.2 67 11.3
2004-04-01 07:28:54 51°21.23 3°4.452 73.1 3.2 66 11.2
2004-04-01 07:28:58 51°21.231 3°4.458 73.2 3.3 67 11.3
2004-04-01 07:29:04 51°21.234 3°4.466 73.3 3.3 65 11.2
2004-04-01 07:29:08 51°21.235 3°4.471 73.5 3.3 67 11.3
2004-04-01 07:29:13 51°21.237 3°4.478 73.9 3.2 66 11.3
2004-04-01 07:29:18 51°21.238 3°4.484 73.9 3.2 66 11.3
2004-04-01 07:29:22 51°21.24 3°4.49 74.2 3.3 67 11.2
2004-04-01 07:29:28 51°21.242 3°4.497 74.6 3.3 66 11.3
2004-04-01 07:29:34 51°21.244 3°4.505 74.7 3.3 68 11.3
2004-04-01 07:29:38 51°21.245 3°4.511 74.7 3.3 67 11.3
2004-04-01 07:29:44 51°21.247 3°4.519 75 3.2 68 11.3
2004-04-01 07:29:48 51°21.249 3°4.524 75.1 3.2 67 11.3
2004-04-01 07:29:54 51°21.251 3°4.532 75.4 3.2 67 11.3
2004-04-01 07:29:58 51°21.252 3°4.537 75.4 3.3 67 11.3
2004-04-01 07:30:04 51°21.254 3°4.545 75.6 3.3 68 11.4
2004-04-01 07:30:08 51°21.255 3°4.551 75.8 3.2 68 11.3
2004-04-01 07:30:14 51°21.257 3°4.559 76 3.2 69 11.4
2004-04-01 07:30:18 51°21.259 3°4.564 76.1 3.3 69 11.4
2004-04-01 07:30:24 51°21.261 3°4.572 76.2 3.2 68 11.3
2004-04-01 07:30:28 51°21.262 3°4.577 76.3 3.3 68 11.3
2004-04-01 07:30:32 51°21.263 3°4.583 76.4 3.2 68 11.3
2004-04-01 07:30:38 51°21.265 3°4.59 76.7 3.2 69 11.3
2004-04-01 07:30:44 51°21.267 3°4.599 76.7 3.2 68 11.4
2004-04-01 07:30:49 51°21.269 3°4.605 76.9 3.2 69 11.4
2004-04-01 07:30:54 51°21.27 3°4.612 77.1 3.2 69 11.4
2004-04-01 07:30:58 51°21.272 3°4.617 77.1 3.2 69 11.3
2004-04-01 07:31:04 51°21.274 3°4.625 77.3 3.3 69 11.4
2004-04-01 07:31:08 51°21.275 3°4.631 77.6 3.3 68 11.3
2004-04-01 07:31:13 51°21.276 3°4.637 77.7 3.2 71 11.4
2004-04-01 07:31:18 51°21.278 3°4.644 77.9 3.3 68 11.4
2004-04-01 07:31:24 51°21.28 3°4.652 78.1 3.2 70 11.3
2004-04-01 07:31:28 51°21.281 3°4.657 78.4 3.2 70 11.3
2004-04-01 07:31:34 51°21.283 3°4.665 78.5 3.3 70 11.3
2004-04-01 07:31:38 51°21.284 3°4.671 78.8 3.3 71 11.3
2004-04-01 07:31:44 51°21.286 3°4.679 79 3.3 72 11.4
2004-04-01 07:31:48 51°21.287 3°4.685 79.3 3.3 73 11.4
2004-04-01 07:31:54 51°21.289 3°4.693 79.5 3.3 70 11.4
2004-04-01 07:31:58 51°21.29 3°4.698 79.6 3.3 72 11.3
2004-04-01 07:32:04 51°21.291 3°4.707 79.8 3.3 71 11.3
2004-04-01 07:32:09 51°21.293 3°4.713 79.9 3.3 74 11.3
2004-04-01 07:32:14 51°21.294 3°4.72 80.1 3.3 71 11.4
2004-04-01 07:32:18 51°21.295 3°4.726 80.3 3.3 72 11.4
2004-04-01 07:32:24 51°21.297 3°4.734 80.3 3.3 72 11.3
2004-04-01 07:32:28 51°21.298 3°4.74 80.5 3.3 72 11.4
2004-04-01 07:32:34 51°21.3 3°4.748 80.7 3.3 72 11.4
2004-04-01 07:32:38 51°21.301 3°4.753 81.1 3.3 73 11.4
2004-04-01 07:32:44 51°21.302 3°4.762 81.1 3.3 73 11.3
2004-04-01 07:32:48 51°21.303 3°4.767 81.3 3.3 73 11.4
2004-04-01 07:32:53 51°21.305 3°4.774 81.6 3.3 73 11.3
2004-04-01 07:32:58 51°21.306 3°4.781 82 3.3 74 11.3
2004-04-01 07:33:04 51°21.307 3°4.789 82.1 3.2 74 11.3
2004-04-01 07:33:08 51°21.309 3°4.795 82.4 3.3 73 11.3
2004-04-01 07:33:14 51°21.31 3°4.803 82.8 3.3 75 11.3
2004-04-01 07:33:18 51°21.311 3°4.809 82.9 3.3 73 11.4
2004-04-01 07:33:24 51°21.312 3°4.817 83.2 3.3 75 11.4
2004-04-01 07:33:28 51°21.313 3°4.823 83.3 3.3 75 11.4
2004-04-01 07:33:34 51°21.314 3°4.831 83.5 3.2 75 11.4
2004-04-01 07:33:38 51°21.315 3°4.837 83.9 3.3 74 11.5
2004-04-01 07:33:44 51°21.317 3°4.845 83.9 3.3 75 11.4
2004-04-01 07:33:49 51°21.318 3°4.852 84.1 3.3 74 11.4
2004-04-01 07:33:54 51°21.319 3°4.859 84.2 3.3 74 11.4
2004-04-01 07:33:58 51°21.32 3°4.865 84.6 3.3 77 11.4
2004-04-01 07:34:04 51°21.321 3°4.873 84.6 3.3 77 11.4
2004-04-01 07:34:09 51°21.322 3°4.88 84.8 3.3 74 11.4
2004-04-01 07:34:14 51°21.323 3°4.887 84.9 3.3 74 11.4
2004-04-01 07:34:19 51°21.324 3°4.894 85.3 3.3 75 11.4
2004-04-01 07:34:24 51°21.325 3°4.901 85.5 3.3 78 11.4
2004-04-01 07:34:28 51°21.326 3°4.907 85.6 3.3 75 11.4
2004-04-01 07:34:33 51°21.327 3°4.914 85.7 3.3 79 11.4
2004-04-01 07:34:38 51°21.328 3°4.921 86 3.3 76 11.3
2004-04-01 07:34:44 51°21.329 3°4.929 86.1 3.3 78 11.3
2004-04-01 07:34:48 51°21.33 3°4.935 86.2 3.3 77 11.4
2004-04-01 07:34:52 51°21.331 3°4.941 86.3 3.3 79 11.4
2004-04-01 07:34:58 51°21.332 3°4.949 86.5 3.3 78 11.4
2004-04-01 07:35:04 51°21.333 3°4.958 86.6 3.3 78 11.4
2004-04-01 07:35:08 51°21.334 3°4.963 86.6 3.3 79 11.5
2004-04-01 07:35:14 51°21.335 3°4.972 86.8 3.3 78 11.4
2004-04-01 07:35:18 51°21.336 3°4.977 87 3.3 77 11.4
2004-04-01 07:35:24 51°21.337 3°4.986 87 3.3 77 11.4
2004-04-01 07:35:28 51°21.338 3°4.992 87 3.3 77 11.4
2004-04-01 07:35:34 51°21.338 3°5 87.2 3.3 79 11.3
2004-04-01 07:35:38 51°21.339 3°5.006 87.5 3.3 78 11.3
2004-04-01 07:35:43 51°21.34 3°5.013 87.6 3.3 79 11.3
2004-04-01 07:35:49 51°21.341 3°5.022 87.8 3.3 78 11.4
2004-04-01 07:35:54 51°21.342 3°5.029 87.6 3.3 80 11.3
2004-04-01 07:35:58 51°21.343 3°5.035 88 3.3 79 11.4
2004-04-01 07:36:04 51°21.344 3°5.043 87.8 3.3 80 11.4
2004-04-01 07:36:09 51°21.345 3°5.051 87.8 3.3 80 11.4
2004-04-01 07:36:13 51°21.346 3°5.056 87.4 3.3 76 11.4
2004-04-01 07:36:18 51°21.347 3°5.063 87 3.3 76 11.3
2004-04-01 07:36:24 51°21.348 3°5.072 86.5 3.3 76 11.4